East Four Airport


Codes: FLED/
Name: East Four Airport
City: Mululowera
Country: Zambia
Elevation: 1880 ft.

Photos at East Four Airport


   Photos courtesy of SpottingLog. You can add your own sightings and photos by signing up for a free trial today.



No photos found.

Weather at East Four Airport


Time (UTC)DescriptionTempratureWindCloud coverageVisibilityPressureHumidity
16-Jun-2024 03:00Clear Sky11°C2 mph, S1%10000m1020hPa76%
16-Jun-2024 06:00Clear Sky14°C2 mph, SE3%10000m1021hPa63%
16-Jun-2024 09:00Few Clouds22°C7 mph, SE16%10000m1021hPa47%
16-Jun-2024 12:00Scattered Clouds25°C9 mph, SE49%10000m1017hPa38%
16-Jun-2024 15:00Broken Clouds22°C7 mph, SE84%10000m1018hPa53%
16-Jun-2024 18:00Scattered Clouds15°C4 mph, S45%10000m1020hPa78%
16-Jun-2024 21:00Clear Sky13°C2 mph, SE0%10000m1020hPa88%
17-Jun-2024 00:00Clear Sky12°C2 mph, E0%10000m1020hPa91%
17-Jun-2024 03:00Clear Sky11°C2 mph, SE0%10000m1021hPa94%
17-Jun-2024 06:00Clear Sky16°C2 mph, SE0%10000m1023hPa73%
17-Jun-2024 09:00Clear Sky23°C7 mph, SE4%10000m1022hPa46%
17-Jun-2024 12:00Few Clouds26°C9 mph, S13%10000m1017hPa33%
17-Jun-2024 15:00Few Clouds24°C7 mph, S20%10000m1017hPa36%
17-Jun-2024 18:00Few Clouds16°C4 mph, S19%10000m1019hPa57%
17-Jun-2024 21:00Scattered Clouds14°C2 mph, S25%10000m1020hPa63%
18-Jun-2024 00:00Scattered Clouds12°C2 mph, SE33%10000m1019hPa68%
18-Jun-2024 03:00Clear Sky11°C2 mph, SE7%10000m1020hPa75%
18-Jun-2024 06:00Clear Sky16°C2 mph, SE5%10000m1021hPa53%
18-Jun-2024 09:00Clear Sky24°C4 mph, SE0%10000m1020hPa31%
18-Jun-2024 12:00Clear Sky28°C4 mph, SE1%10000m1015hPa24%
18-Jun-2024 15:00Clear Sky25°C4 mph, SE6%10000m1015hPa28%
18-Jun-2024 18:00Clear Sky17°C2 mph, S3%10000m1017hPa51%
18-Jun-2024 21:00Clear Sky14°C2 mph, S0%10000m1018hPa58%
19-Jun-2024 00:00Clear Sky13°C2 mph, SW0%10000m1018hPa58%
19-Jun-2024 03:00Clear Sky12°C2 mph, SE0%10000m1019hPa63%
19-Jun-2024 06:00Clear Sky17°C2 mph, SE0%10000m1020hPa45%
19-Jun-2024 09:00Clear Sky26°C4 mph, SE0%10000m1018hPa26%
19-Jun-2024 12:00Clear Sky30°C4 mph, SE0%10000m1014hPa21%
19-Jun-2024 15:00Clear Sky27°C4 mph, S3%10000m1014hPa24%
19-Jun-2024 18:00Clear Sky18°C2 mph, S4%10000m1016hPa44%
19-Jun-2024 21:00Clear Sky16°C0 mph, S1%10000m1018hPa50%
20-Jun-2024 00:00Clear Sky15°C0 mph, E3%10000m1017hPa51%
20-Jun-2024 03:00Clear Sky13°C2 mph, S1%10000m1019hPa58%
20-Jun-2024 06:00Clear Sky18°C2 mph, SE0%10000m1021hPa43%
20-Jun-2024 09:00Clear Sky26°C7 mph, SE4%10000m1020hPa30%
20-Jun-2024 12:00Clear Sky30°C7 mph, SE4%10000m1015hPa24%
20-Jun-2024 15:00Clear Sky29°C9 mph, S5%10000m1014hPa26%
20-Jun-2024 18:00Clear Sky20°C4 mph, S6%10000m1018hPa47%
20-Jun-2024 21:00Clear Sky17°C2 mph, SE5%10000m1019hPa58%
21-Jun-2024 00:00Clear Sky15°C2 mph, SE2%10000m1019hPa66%